Terminal Aerodrome Forecast
Issued by NWS

Home | Current Version | Previous Version | Text Only | Print | Product List | Glossary On
Versions: 1 2 3 4 5 6 7 8 9 10 11 12 13 14 15
000
FTUS45 KABQ 270500
TAFROW
TAF
KROW 270538Z 2706/2806 VRB04KT P6SM BKN100
     FM271700 15009KT P6SM SCT100
     FM272100 18011KT P6SM VCTS BKN090CB
      TEMPO 2721/2724 -TSRA BKN070CB
     FM280100 22007KT P6SM SCT090=

USA.gov is the U.S. government's official web portal to all federal, state and local government web resources and services.